Time;durP1;ratioP1;P1;durP2;ratioP2;P2;SDS_P1;SDS_P2;PMS_P1;PMS_P2;Temp;Humidity;BMP_temperature;BMP_pressure;BME280_temperature;BME280_humidity;BME280_pressure;Samples;Min_cycle;Max_cycle;Signal;HPM_P1;HPM_P2
2022/08/22 00:00:12;;;;;;;4.82;3.67;;;19.80;49.20;;;;;;5052960;28;20169;-45
2022/08/22 00:03:19;;;;;;;7.82;4.13;;;19.80;49.40;;;;;;5052721;28;20615;-46
2022/08/22 00:05:51;;;;;;;3.95;3.40;;;19.80;49.40;;;;;;5042826;28;20188;-45
2022/08/22 00:08:35;;;;;;;4.25;3.72;;;19.70;49.40;;;;;;5053313;28;20185;-45
2022/08/22 00:11:11;;;;;;;4.78;3.72;;;19.70;49.40;;;;;;5053216;28;20334;-45
2022/08/22 00:13:59;;;;;;;2.95;2.63;;;19.70;49.50;;;;;;5053259;28;20157;-44
2022/08/22 00:16:45;;;;;;;4.63;3.72;;;19.70;49.60;;;;;;5053247;28;20185;-45
2022/08/22 00:19:53;;;;;;;5.97;4.95;;;19.70;49.70;;;;;;5053141;28;20256;-45
2022/08/22 00:22:47;;;;;;;4.75;4.10;;;19.70;49.70;;;;;;5053065;28;20189;-45
2022/08/22 00:25:37;;;;;;;3.22;2.70;;;19.70;49.80;;;;;;5052824;28;20161;-45
2022/08/22 00:28:06;;;;;;;3.92;3.17;;;19.70;49.80;;;;;;5052601;28;20208;-44
2022/08/22 00:30:43;;;;;;;6.47;2.97;;;19.60;49.70;;;;;;5052623;28;20253;-44
2022/08/22 00:33:41;;;;;;;8.10;3.65;;;19.60;49.80;;;;;;5052468;28;20185;-45
2022/08/22 00:36:17;;;;;;;6.05;3.30;;;19.60;49.80;;;;;;5036536;28;20181;-45
2022/08/22 00:39:06;;;;;;;7.95;3.75;;;19.60;49.80;;;;;;5052019;28;20556;-44
2022/08/22 00:42:03;;;;;;;4.82;3.10;;;19.50;49.60;;;;;;5052217;28;20283;-44
2022/08/22 00:44:59;;;;;;;4.93;3.53;;;19.50;49.70;;;;;;5052388;28;20180;-45
2022/08/22 00:47:35;;;;;;;3.55;2.97;;;19.50;49.80;;;;;;5052032;28;20755;-45
2022/08/22 00:50:29;;;;;;;4.57;3.30;;;19.50;49.70;;;;;;5052282;28;20656;-43
2022/08/22 00:53:14;;;;;;;4.60;3.67;;;19.50;49.80;;;;;;5021241;28;20213;-45
2022/08/22 00:55:54;;;;;;;5.75;3.88;;;19.50;50.00;;;;;;5052018;28;20181;-45
2022/08/22 00:58:19;;;;;;;3.90;3.28;;;19.50;50.00;;;;;;5052214;28;20192;-45
2022/08/22 01:00:53;;;;;;;3.50;3.07;;;19.50;50.00;;;;;;5052430;28;20189;-44
2022/08/22 01:03:35;;;;;;;4.30;3.38;;;19.40;50.10;;;;;;5052379;28;20164;-45
2022/08/22 01:06:18;;;;;;;5.53;3.78;;;19.40;50.00;;;;;;5052325;28;20258;-44
2022/08/22 01:09:26;;;;;;;7.50;3.53;;;19.40;50.20;;;;;;5052465;28;20595;-44
2022/08/22 01:11:55;;;;;;;5.70;3.50;;;19.40;50.00;;;;;;5037920;28;20204;-45
2022/08/22 01:14:50;;;;;;;3.42;2.58;;;19.40;50.10;;;;;;5052234;28;20177;-45
2022/08/22 01:17:34;;;;;;;4.38;3.85;;;19.40;50.10;;;;;;5052142;28;20165;-45
2022/08/22 01:20:39;;;;;;;3.70;2.90;;;19.40;50.10;;;;;;5052263;28;20204;-45
2022/08/22 01:23:24;;;;;;;4.35;3.35;;;19.40;50.20;;;;;;5052170;28;20558;-46
2022/08/22 01:26:17;;;;;;;5.22;3.72;;;19.30;50.10;;;;;;5053258;28;20168;-45
2022/08/22 01:28:49;;;;;;;5.32;4.05;;;19.30;50.20;;;;;;5052165;28;20204;-44
2022/08/22 01:31:52;;;;;;;3.50;3.17;;;19.30;50.20;;;;;;5052439;28;20265;-45
2022/08/22 01:34:37;;;;;;;4.35;2.80;;;19.30;50.00;;;;;;5052267;28;20161;-45
2022/08/22 01:37:26;;;;;;;4.35;3.95;;;19.30;50.20;;;;;;5052004;28;20246;-45
2022/08/22 01:40:38;;;;;;;6.45;4.15;;;19.30;50.20;;;;;;4997444;28;20277;-44
2022/08/22 01:43:13;;;;;;;3.90;2.95;;;19.30;50.20;;;;;;5032570;28;20197;-44
2022/08/22 01:46:00;;;;;;;11.57;4.07;;;19.20;50.20;;;;;;5052189;28;20180;-44
2022/08/22 01:48:49;;;;;;;6.68;3.30;;;19.20;50.20;;;;;;5053142;28;20199;-45
2022/08/22 01:51:24;;;;;;;6.97;3.72;;;19.20;50.10;;;;;;5055742;28;20191;-43
2022/08/22 01:54:11;;;;;;;5.47;3.30;;;19.30;50.20;;;;;;5055781;28;20188;-43
2022/08/22 01:56:43;;;;;;;4.95;3.13;;;19.30;50.30;;;;;;5055317;28;20175;-45
2022/08/22 01:59:22;;;;;;;3.17;2.88;;;19.30;50.40;;;;;;5055789;28;20596;-45
2022/08/22 02:01:48;;;;;;;3.97;3.28;;;19.30;50.40;;;;;;5055097;28;20193;-44
2022/08/22 02:04:33;;;;;;;4.90;3.60;;;19.30;50.50;;;;;;5055652;28;20178;-44
2022/08/22 02:07:13;;;;;;;4.45;3.47;;;19.30;50.40;;;;;;5054847;28;20667;-45
2022/08/22 02:10:20;;;;;;;4.68;3.53;;;19.30;50.40;;;;;;5055291;28;20742;-45
2022/08/22 02:13:09;;;;;;;6.30;3.38;;;19.30;50.40;;;;;;4990813;28;20181;-45
2022/08/22 02:16:04;;;;;;;5.90;3.92;;;19.30;50.50;;;;;;5055260;28;20173;-45
2022/08/22 02:18:46;;;;;;;5.38;2.80;;;19.30;50.50;;;;;;5046090;28;20239;-45
2022/08/22 02:21:21;;;;;;;4.90;3.17;;;19.20;50.50;;;;;;5055285;28;20703;-44
2022/08/22 02:24:00;;;;;;;4.75;3.38;;;19.30;50.70;;;;;;5055116;28;20161;-45
2022/08/22 02:27:03;;;;;;;6.55;2.95;;;19.30;50.80;;;;;;5054721;28;20660;-45
2022/08/22 02:29:56;;;;;;;5.30;3.13;;;19.30;50.70;;;;;;5052554;28;20211;-45
2022/08/22 02:32:25;;;;;;;4.47;3.60;;;19.30;50.70;;;;;;5054890;28;20569;-45
2022/08/22 02:35:04;;;;;;;95.20;16.27;;;19.30;50.70;;;;;;5054671;28;20562;-45
2022/08/22 02:37:35;;;;;;;5.05;4.05;;;19.30;50.60;;;;;;5054435;28;20648;-44
2022/08/22 02:40:05;;;;;;;5.35;3.95;;;19.30;50.80;;;;;;5054588;28;20154;-45
2022/08/22 02:42:51;;;;;;;5.30;2.80;;;19.40;50.80;;;;;;5054464;28;20276;-44
2022/08/22 02:45:29;;;;;;;4.85;4.45;;;19.40;50.80;;;;;;5054490;28;20173;-44
2022/08/22 02:48:32;;;;;;;8.70;4.63;;;19.30;50.80;;;;;;5054519;28;20188;-44
2022/08/22 02:51:29;;;;;;;3.33;2.70;;;19.30;50.90;;;;;;5054620;28;20185;-45
2022/08/22 02:54:35;;;;;;;4.93;4.22;;;19.30;51.00;;;;;;5054331;28;20268;-45
2022/08/22 02:57:13;;;;;;;3.75;3.00;;;19.30;50.80;;;;;;5014558;28;20173;-45
2022/08/22 03:00:14;;;;;;;3.85;3.50;;;19.30;50.90;;;;;;5054277;28;20199;-44
2022/08/22 03:02:56;;;;;;;4.90;4.03;;;19.30;50.80;;;;;;5039472;28;20176;-44
2022/08/22 03:05:27;;;;;;;3.63;2.80;;;19.30;50.80;;;;;;5053668;28;20177;-45
2022/08/22 03:08:25;;;;;;;4.50;3.42;;;19.20;50.80;;;;;;5053638;28;20200;-45
2022/08/22 03:11:08;;;;;;;3.95;3.05;;;19.20;50.80;;;;;;5053789;28;20193;-44
2022/08/22 03:13:54;;;;;;;3.90;3.20;;;19.20;50.90;;;;;;5053677;28;20181;-44
2022/08/22 03:16:39;;;;;;;5.22;3.83;;;19.20;50.90;;;;;;5053627;28;20501;-45
2022/08/22 03:20:04;;;;;;;6.82;4.00;;;19.20;50.90;;;;;;5053744;28;20157;-44
2022/08/22 03:22:45;;;;;;;4.05;3.60;;;19.20;51.00;;;;;;5009887;28;20212;-45
2022/08/22 03:25:35;;;;;;;4.32;3.78;;;19.20;51.10;;;;;;5053409;28;20609;-45
2022/08/22 03:28:18;;;;;;;4.13;3.67;;;19.20;51.00;;;;;;5053396;28;20197;-44
2022/08/22 03:30:55;;;;;;;4.05;3.15;;;19.20;50.80;;;;;;5053371;28;20637;-43
2022/08/22 03:33:27;;;;;;;5.70;3.63;;;19.20;50.90;;;;;;5053308;28;20181;-45
2022/08/22 03:36:16;;;;;;;4.10;3.60;;;19.20;51.10;;;;;;5053256;28;20172;-44
2022/08/22 03:39:07;;;;;;;4.22;3.53;;;19.20;51.00;;;;;;5040811;28;20216;-45
2022/08/22 03:42:05;;;;;;;4.05;3.50;;;19.20;51.00;;;;;;5053154;28;20581;-45
2022/08/22 03:45:08;;;;;;;4.30;3.42;;;19.20;51.00;;;;;;5049013;28;20208;-43
2022/08/22 03:47:48;;;;;;;5.60;3.45;;;19.20;51.10;;;;;;5053058;28;20173;-44
2022/08/22 03:50:43;;;;;;;5.03;2.90;;;19.20;50.90;;;;;;5052714;28;20173;-44
2022/08/22 03:53:59;;;;;;;7.78;4.05;;;19.20;51.60;;;;;;5052917;28;20173;-44
2022/08/22 03:56:47;;;;;;;4.32;3.63;;;19.20;50.80;;;;;;5018485;28;20264;-43
2022/08/22 03:59:51;;;;;;;3.40;3.03;;;19.10;50.80;;;;;;5052689;28;20193;-44
2022/08/22 04:03:15;;;;;;;5.25;3.70;;;19.20;50.90;;;;;;5052448;28;20545;-45
2022/08/22 04:06:18;;;;;;;3.60;3.10;;;19.10;51.20;;;;;;4965904;28;20222;-44
2022/08/22 04:09:19;;;;;;;4.10;3.38;;;19.10;51.20;;;;;;5052580;28;20200;-44
2022/08/22 04:12:11;;;;;;;5.13;3.47;;;19.00;51.20;;;;;;5021099;28;20194;-44
2022/08/22 04:15:05;;;;;;;4.22;3.50;;;19.10;51.30;;;;;;5052167;28;20169;-44
2022/08/22 04:17:42;;;;;;;3.90;3.00;;;19.10;51.50;;;;;;5052131;28;20169;-43
2022/08/22 04:20:45;;;;;;;7.00;3.30;;;19.10;51.50;;;;;;5052456;28;20264;-44
2022/08/22 04:23:11;;;;;;;4.15;3.75;;;19.10;51.50;;;;;;5011065;28;20526;-44
2022/08/22 04:25:45;;;;;;;5.70;4.03;;;19.10;51.60;;;;;;5051924;28;20172;-44
2022/08/22 04:28:24;;;;;;;4.70;3.83;;;19.10;51.60;;;;;;5052172;28;20241;-43
2022/08/22 04:31:11;;;;;;;5.05;3.90;;;19.10;51.50;;;;;;5051889;28;20245;-44
2022/08/22 04:33:40;;;;;;;4.53;3.35;;;19.10;51.50;;;;;;5052085;28;20184;-44
2022/08/22 04:36:16;;;;;;;5.82;4.57;;;19.10;51.50;;;;;;5051929;28;20181;-44
2022/08/22 04:38:53;;;;;;;5.07;3.67;;;19.10;51.50;;;;;;5052167;28;20264;-44
2022/08/22 04:41:34;;;;;;;6.20;3.78;;;19.10;51.70;;;;;;5051925;28;20217;-44
2022/08/22 04:44:09;;;;;;;7.15;4.40;;;19.20;51.80;;;;;;5052162;28;20595;-44
2022/08/22 04:46:46;;;;;;;5.90;4.13;;;19.20;51.80;;;;;;5051543;28;20176;-44
2022/08/22 04:49:32;;;;;;;5.03;3.50;;;19.20;51.80;;;;;;5051816;28;20192;-44
2022/08/22 04:52:20;;;;;;;5.50;3.72;;;19.20;51.60;;;;;;5051752;28;20661;-44
2022/08/22 04:55:15;;;;;;;4.47;3.60;;;19.30;51.80;;;;;;5051799;28;20214;-44
2022/08/22 04:57:54;;;;;;;9.95;4.00;;;19.30;51.90;;;;;;5010414;28;20675;-44
2022/08/22 05:00:20;;;;;;;5.97;4.45;;;19.30;51.90;;;;;;5051791;28;20173;-45
2022/08/22 05:02:55;;;;;;;11.37;5.93;;;19.30;51.90;;;;;;5051789;28;20502;-45
2022/08/22 05:05:29;;;;;;;3.70;3.20;;;19.30;51.90;;;;;;5051974;28;20417;-45
2022/08/22 05:07:58;;;;;;;6.03;4.35;;;19.30;52.00;;;;;;5051504;28;20197;-45
2022/08/22 05:10:34;;;;;;;5.35;4.05;;;20.40;52.60;;;;;;5051641;28;20173;-45
2022/08/22 05:13:07;;;;;;;6.00;4.40;;;19.40;52.10;;;;;;5051814;28;20525;-45
2022/08/22 05:15:43;;;;;;;5.05;4.13;;;19.40;52.20;;;;;;5051434;28;20208;-44
2022/08/22 05:18:15;;;;;;;7.05;4.03;;;19.50;52.40;;;;;;5051653;28;20184;-45
2022/08/22 05:20:46;;;;;;;5.35;3.72;;;19.50;52.30;;;;;;5051434;28;20208;-44
2022/08/22 05:23:15;;;;;;;6.60;4.72;;;19.50;52.40;;;;;;5052589;28;20181;-44
2022/08/22 05:25:44;;;;;;;4.90;4.40;;;19.50;52.40;;;;;;5055261;28;20169;-44
2022/08/22 05:28:23;;;;;;;5.35;4.20;;;19.60;52.30;;;;;;5055564;28;20209;-44
2022/08/22 05:30:50;;;;;;;5.88;4.18;;;19.60;52.30;;;;;;5055372;28;20185;-44
2022/08/22 05:33:26;;;;;;;9.05;4.70;;;19.60;52.30;;;;;;5055208;28;20263;-44
2022/08/22 05:36:21;;;;;;;5.45;4.05;;;19.70;52.40;;;;;;5055339;28;20173;-45
2022/08/22 05:38:58;;;;;;;10.80;5.00;;;19.80;52.10;;;;;;5044403;28;20177;-45
2022/08/22 05:41:27;;;;;;;6.32;4.35;;;19.80;52.10;;;;;;5055149;28;20208;-44
2022/08/22 05:43:54;;;;;;;4.75;3.63;;;19.70;52.10;;;;;;5054977;28;20645;-45
2022/08/22 05:46:36;;;;;;;6.72;3.95;;;19.90;52.20;;;;;;5054979;28;20197;-44
2022/08/22 05:49:03;;;;;;;8.00;4.20;;;19.90;52.20;;;;;;5054958;28;20711;-44
2022/08/22 05:51:54;;;;;;;7.72;4.80;;;19.90;52.20;;;;;;5055220;28;20197;-44
2022/08/22 05:54:25;;;;;;;6.25;4.72;;;19.90;52.10;;;;;;5013819;28;20181;-44
2022/08/22 05:56:59;;;;;;;6.50;4.80;;;20.00;52.10;;;;;;5054922;28;20169;-44
2022/08/22 05:59:33;;;;;;;5.97;4.35;;;20.00;52.20;;;;;;5054858;28;20262;-45
2022/08/22 06:02:10;;;;;;;4.95;4.45;;;20.00;52.10;;;;;;5054959;28;20557;-45
2022/08/22 06:04:59;;;;;;;6.68;5.50;;;20.10;52.20;;;;;;5054647;28;20260;-44
2022/08/22 06:07:39;;;;;;;7.00;4.25;;;20.20;52.10;;;;;;5054740;28;20237;-45
2022/08/22 06:10:20;;;;;;;6.88;3.40;;;20.20;52.00;;;;;;5054743;28;20606;-44
2022/08/22 06:12:58;;;;;;;5.40;4.78;;;20.20;52.00;;;;;;5054603;28;20157;-44
2022/08/22 06:15:48;;;;;;;5.85;4.50;;;20.30;52.00;;;;;;5054395;28;20633;-44
2022/08/22 06:18:19;;;;;;;6.25;5.05;;;20.30;51.90;;;;;;5054764;28;20227;-44
2022/08/22 06:20:57;;;;;;;5.20;4.70;;;20.30;51.90;;;;;;5054441;28;20672;-45
2022/08/22 06:23:35;;;;;;;5.82;5.15;;;20.30;51.90;;;;;;5054420;28;20169;-45
2022/08/22 06:26:02;;;;;;;7.70;5.78;;;20.40;51.70;;;;;;5054433;28;20265;-45
2022/08/22 06:28:37;;;;;;;6.97;4.63;;;20.50;51.50;;;;;;5054321;28;20205;-45
2022/08/22 06:31:04;;;;;;;9.27;4.63;;;20.50;51.40;;;;;;5054238;28;20676;-44
2022/08/22 06:33:37;;;;;;;6.95;5.38;;;20.50;51.40;;;;;;5054425;28;20186;-44
2022/08/22 06:36:29;;;;;;;7.22;5.38;;;20.50;51.50;;;;;;5053303;28;20169;-45
2022/08/22 06:39:04;;;;;;;5.95;4.85;;;20.60;51.60;;;;;;5054447;28;20573;-45
2022/08/22 06:41:35;;;;;;;5.63;5.05;;;20.60;51.40;;;;;;5053760;28;20307;-45
2022/08/22 06:44:03;;;;;;;7.85;5.60;;;20.70;51.50;;;;;;5054022;28;20186;-45
2022/08/22 06:46:32;;;;;;;6.03;4.20;;;20.70;51.50;;;;;;5053653;28;20664;-44
2022/08/22 06:49:00;;;;;;;9.07;5.35;;;20.70;51.00;;;;;;5053962;28;20301;-45
2022/08/22 06:51:27;;;;;;;7.65;5.80;;;20.80;51.90;;;;;;5054061;28;20193;-45
2022/08/22 06:53:59;;;;;;;6.10;5.50;;;20.80;51.10;;;;;;5053782;28;20188;-45
2022/08/22 06:56:30;;;;;;;7.65;5.20;;;20.90;51.20;;;;;;5053698;28;20154;-45
2022/08/22 06:58:59;;;;;;;5.15;4.50;;;21.00;51.10;;;;;;5053805;28;20232;-45
2022/08/22 07:01:48;;;;;;;6.80;5.07;;;21.00;51.00;;;;;;5053876;28;20201;-45
2022/08/22 07:04:14;;;;;;;7.15;4.90;;;21.10;51.20;;;;;;5053811;28;20181;-45
2022/08/22 07:06:49;;;;;;;6.38;5.00;;;21.10;51.00;;;;;;5053376;28;20173;-45
2022/08/22 07:09:37;;;;;;;6.55;5.95;;;21.20;51.00;;;;;;5053460;28;20204;-45
2022/08/22 07:12:30;;;;;;;7.25;5.72;;;21.30;51.10;;;;;;5053582;28;20261;-45
2022/08/22 07:15:35;;;;;;;5.72;4.75;;;21.30;50.90;;;;;;5043593;28;20173;-45
2022/08/22 07:18:23;;;;;;;6.32;5.22;;;21.40;50.80;;;;;;5044903;28;20269;-45
2022/08/22 07:20:54;;;;;;;9.27;5.25;;;21.40;50.40;;;;;;5053235;28;20710;-45
2022/08/22 07:23:39;;;;;;;5.93;5.32;;;21.50;50.10;;;;;;5053635;28;20169;-45
2022/08/22 07:26:32;;;;;;;9.07;5.43;;;21.50;50.20;;;;;;5053316;28;20166;-43
2022/08/22 07:29:08;;;;;;;10.40;5.72;;;21.60;49.50;;;;;;5053343;28;20623;-43
2022/08/22 07:31:37;;;;;;;5.55;4.97;;;21.60;49.30;;;;;;5053392;28;20189;-43
2022/08/22 07:34:03;;;;;;;5.90;5.30;;;21.60;50.10;;;;;;5053550;28;20180;-42
2022/08/22 07:36:55;;;;;;;8.40;5.30;;;21.70;49.50;;;;;;5052930;28;20193;-42
2022/08/22 07:39:41;;;;;;;8.82;4.65;;;21.80;49.10;;;;;;5053215;28;20181;-42
2022/08/22 07:42:15;;;;;;;6.53;5.72;;;21.80;49.00;;;;;;5052963;28;20300;-43
2022/08/22 07:45:10;;;;;;;7.72;6.60;;;21.90;49.00;;;;;;5052931;28;20166;-42
2022/08/22 07:47:42;;;;;;;8.73;4.70;;;22.00;49.00;;;;;;5052765;28;20248;-43
2022/08/22 07:50:13;;;;;;;8.57;6.15;;;22.00;48.30;;;;;;5053109;28;20186;-43
2022/08/22 07:52:44;;;;;;;6.40;5.17;;;22.10;48.20;;;;;;5053029;28;20276;-43
2022/08/22 07:55:21;;;;;;;14.98;5.05;;;22.20;48.20;;;;;;5053385;28;20389;-43
2022/08/22 07:57:54;;;;;;;9.37;5.30;;;22.20;47.70;;;;;;5053032;28;20248;-43
2022/08/22 08:00:21;;;;;;;6.68;4.38;;;22.30;48.20;;;;;;5053062;28;20388;-45
2022/08/22 08:02:57;;;;;;;5.40;4.65;;;22.40;47.90;;;;;;5053395;28;20174;-45
2022/08/22 08:05:27;;;;;;;6.47;4.40;;;22.40;47.60;;;;;;5052995;28;20587;-44
2022/08/22 08:07:54;;;;;;;7.43;4.55;;;22.50;47.70;;;;;;5052486;28;20173;-43
2022/08/22 08:10:31;;;;;;;8.40;5.15;;;22.50;47.90;;;;;;5052489;28;20200;-44
2022/08/22 08:13:04;;;;;;;6.70;4.30;;;22.60;47.80;;;;;;5052670;28;20532;-44
2022/08/22 08:15:34;;;;;;;7.50;4.87;;;22.70;47.70;;;;;;5052228;28;20753;-44
2022/08/22 08:18:18;;;;;;;5.78;4.65;;;22.80;47.50;;;;;;5052261;28;20416;-44
2022/08/22 08:20:50;;;;;;;8.30;5.78;;;22.80;47.00;;;;;;5052189;28;20192;-44
2022/08/22 08:23:18;;;;;;;6.78;4.75;;;22.90;46.90;;;;;;5052344;28;20180;-44
2022/08/22 08:25:57;;;;;;;6.77;5.07;;;23.00;47.40;;;;;;5051868;28;20676;-44
2022/08/22 08:28:33;;;;;;;8.03;5.63;;;23.10;48.30;;;;;;5052019;28;20427;-44
2022/08/22 08:31:23;;;;;;;7.03;4.00;;;23.30;47.20;;;;;;5052024;28;20422;-44
2022/08/22 08:34:11;;;;;;;4.70;3.93;;;23.40;47.30;;;;;;5051954;28;20408;-44
2022/08/22 08:36:58;;;;;;;6.53;4.53;;;23.50;47.50;;;;;;5051255;28;20412;-44
2022/08/22 08:39:42;;;;;;;7.50;4.40;;;23.60;47.60;;;;;;5051904;28;20971;-44
2022/08/22 08:42:28;;;;;;;4.67;4.17;;;23.80;47.60;;;;;;5051842;28;20443;-44
2022/08/22 08:45:33;;;;;;;7.43;4.50;;;23.90;47.20;;;;;;5052103;28;20419;-44
2022/08/22 08:48:25;;;;;;;4.63;3.70;;;24.10;47.30;;;;;;5034362;28;20473;-44
2022/08/22 08:51:06;;;;;;;4.27;3.50;;;24.20;47.30;;;;;;5051901;28;20423;-44
2022/08/22 08:53:55;;;;;;;4.77;3.80;;;24.30;46.90;;;;;;5052087;28;20479;-43
2022/08/22 08:56:52;;;;;;;4.10;3.50;;;24.40;46.80;;;;;;5051881;28;20388;-44
2022/08/22 08:59:37;;;;;;;5.07;3.73;;;24.50;46.90;;;;;;5055538;28;20407;-45
2022/08/22 09:02:28;;;;;;;3.30;2.70;;;24.60;46.90;;;;;;5056703;28;20439;-45
2022/08/22 09:05:21;;;;;;;4.77;3.30;;;24.70;46.60;;;;;;5056709;28;20970;-45
2022/08/22 09:08:02;;;;;;;5.00;3.60;;;24.70;46.20;;;;;;5056280;28;20407;-45
2022/08/22 09:10:58;;;;;;;6.00;3.40;;;24.80;46.30;;;;;;5056158;28;20423;-45
2022/08/22 09:13:47;;;;;;;3.93;2.80;;;24.80;46.10;;;;;;5056372;28;20404;-45
2022/08/22 09:16:28;;;;;;;4.73;3.50;;;24.80;45.50;;;;;;5056384;28;20539;-45
2022/08/22 09:19:29;;;;;;;4.83;3.40;;;24.90;45.30;;;;;;5056370;28;20454;-46
2022/08/22 09:22:12;;;;;;;5.80;3.23;;;24.90;45.20;;;;;;5023495;28;20442;-46
2022/08/22 09:24:54;;;;;;;6.63;3.03;;;24.90;45.10;;;;;;5055960;28;20466;-46
2022/08/22 09:27:29;;;;;;;3.13;2.33;;;24.90;44.50;;;;;;5055749;28;20423;-45
2022/08/22 09:30:24;;;;;;;5.20;2.17;;;24.90;44.50;;;;;;5056095;28;20486;-45
2022/08/22 09:32:59;;;;;;;2.53;1.50;;;24.90;44.30;;;;;;5051816;28;20993;-43
2022/08/22 09:35:55;;;;;;;3.00;1.80;;;24.90;44.00;;;;;;5056014;28;20400;-43
2022/08/22 09:38:30;;;;;;;7.63;2.70;;;25.00;43.60;;;;;;5056264;28;20388;-43
2022/08/22 09:41:12;;;;;;;6.53;2.07;;;24.90;43.70;;;;;;5055603;28;20481;-43
2022/08/22 09:43:48;;;;;;;3.37;2.00;;;25.00;43.60;;;;;;5055760;28;20384;-43
2022/08/22 09:46:25;;;;;;;4.90;2.30;;;25.00;43.40;;;;;;5055790;28;20423;-43
2022/08/22 09:49:08;;;;;;;3.03;2.70;;;25.00;43.30;;;;;;5055644;28;20447;-43
2022/08/22 09:51:57;;;;;;;3.87;2.83;;;24.90;43.40;;;;;;5055685;28;20457;-43
2022/08/22 09:54:37;;;;;;;4.30;2.83;;;24.90;43.50;;;;;;5044551;28;20431;-42
2022/08/22 09:57:15;;;;;;;3.23;2.53;;;24.90;43.60;;;;;;5069300;22;20502;-43
2022/08/22 09:59:54;;;;;;;8.37;2.70;;;25.00;43.40;;;;;;5067829;28;20399;-42
2022/08/22 10:02:46;;;;;;;2.87;2.30;;;25.00;43.20;;;;;;5074999;28;20470;-43
2022/08/22 10:05:20;;;;;;;2.77;2.30;;;25.00;43.30;;;;;;5074280;28;20533;-43
2022/08/22 10:07:55;;;;;;;3.40;2.80;;;25.00;43.50;;;;;;5074448;28;20485;-42
2022/08/22 10:10:29;;;;;;;3.33;2.53;;;25.10;43.60;;;;;;5073494;28;20511;-43
2022/08/22 10:13:12;;;;;;;4.50;2.60;;;25.10;43.20;;;;;;5074619;28;21058;-42
2022/08/22 10:15:46;;;;;;;3.03;2.17;;;25.20;43.00;;;;;;5074362;28;20414;-43
2022/08/22 10:18:36;;;;;;;2.87;2.17;;;25.10;42.70;;;;;;5074491;28;20402;-42
2022/08/22 10:21:18;;;;;;;3.57;2.30;;;25.20;42.60;;;;;;5074453;28;20391;-43
2022/08/22 10:23:56;;;;;;;2.30;1.60;;;25.30;41.30;;;;;;5074492;28;20490;-43
2022/08/22 10:26:49;;;;;;;4.93;2.40;;;25.30;42.20;;;;;;5074036;28;20454;-43
2022/08/22 10:29:38;;;;;;;2.03;1.83;;;25.40;41.90;;;;;;5072480;28;20532;-43
2022/08/22 10:32:24;;;;;;;3.37;2.57;;;25.50;41.80;;;;;;5074212;28;20402;-42
2022/08/22 10:34:55;;;;;;;3.67;2.30;;;25.60;41.20;;;;;;5074113;28;20850;-42
2022/08/22 10:37:47;;;;;;;3.30;2.73;;;25.70;41.40;;;;;;5074173;28;20496;-42
2022/08/22 10:40:23;;;;;;;5.43;3.07;;;25.80;41.10;;;;;;5074298;28;20399;-41
2022/08/22 10:43:02;;;;;;;2.93;2.40;;;25.80;41.20;;;;;;5074473;28;20391;-41
2022/08/22 10:45:42;;;;;;;3.43;2.40;;;25.90;41.00;;;;;;5074040;28;20425;-43
2022/08/22 10:48:08;;;;;;;3.93;3.00;;;26.10;41.50;;;;;;5074198;28;20505;-43
2022/08/22 10:50:45;;;;;;;3.40;2.43;;;26.20;41.60;;;;;;5074065;28;20946;-42
2022/08/22 10:53:32;;;;;;;3.47;2.77;;;26.20;41.20;;;;;;5072685;28;20469;-42
2022/08/22 10:56:35;;;;;;;3.70;2.37;;;26.30;39.70;;;;;;5073616;28;20443;-43
2022/08/22 10:59:36;;;;;;;4.53;2.90;;;26.20;40.00;;;;;;5073904;28;20509;-42
2022/08/22 11:02:16;;;;;;;3.17;2.87;;;26.20;41.00;;;;;;5073709;28;20931;-43
2022/08/22 11:05:01;;;;;;;4.30;2.40;;;26.20;39.00;;;;;;5073728;28;20445;-43
2022/08/22 11:08:11;;;;;;;3.70;2.63;;;26.20;39.90;;;;;;5073422;28;20403;-42
2022/08/22 11:10:50;;;;;;;2.87;1.93;;;26.20;40.00;;;;;;5073490;28;20399;-42
2022/08/22 11:13:25;;;;;;;3.63;2.93;;;26.10;40.30;;;;;;5073525;28;20387;-42
2022/08/22 11:16:15;;;;;;;4.87;3.53;;;26.10;41.20;;;;;;5073517;28;20416;-42
2022/08/22 11:19:07;;;;;;;3.60;2.90;;;26.10;40.30;;;;;;5072871;28;20419;-42
2022/08/22 11:21:51;;;;;;;2.80;2.20;;;26.10;39.80;;;;;;5073267;28;20382;-42
2022/08/22 11:24:41;;;;;;;4.27;2.87;;;26.10;40.00;;;;;;5073326;28;20466;-42
2022/08/22 11:27:19;;;;;;;3.63;2.67;;;26.10;39.50;;;;;;5073003;28;20430;-42
2022/08/22 11:30:04;;;;;;;2.97;2.00;;;26.10;39.50;;;;;;5073160;28;20469;-42
2022/08/22 11:32:47;;;;;;;3.40;2.73;;;26.00;39.50;;;;;;5073248;28;20410;-42
2022/08/22 11:35:23;;;;;;;2.90;2.27;;;26.00;39.50;;;;;;5072943;28;20419;-42
2022/08/22 11:38:01;;;;;;;6.00;3.30;;;26.10;39.40;;;;;;5072830;28;20426;-41
2022/08/22 11:40:51;;;;;;;3.77;2.50;;;26.10;39.70;;;;;;5073372;28;20418;-43
2022/08/22 11:43:35;;;;;;;3.00;1.77;;;26.10;38.80;;;;;;5073047;28;20489;-43
2022/08/22 11:46:25;;;;;;;4.47;2.40;;;26.00;38.80;;;;;;5072601;28;20407;-43
2022/08/22 11:49:05;;;;;;;2.27;1.90;;;26.00;38.90;;;;;;5072920;28;20446;-42
2022/08/22 11:51:33;;;;;;;2.20;1.90;;;25.90;38.10;;;;;;5072857;28;20444;-41
2022/08/22 11:54:12;;;;;;;3.33;2.33;;;25.90;38.70;;;;;;5072677;28;20758;-41
2022/08/22 11:56:55;;;;;;;2.33;1.97;;;25.90;38.80;;;;;;5072505;28;20446;-41
2022/08/22 11:59:41;;;;;;;3.37;2.77;;;25.90;39.00;;;;;;5072668;28;20395;-42
2022/08/22 12:02:24;;;;;;;3.40;1.53;;;25.90;39.10;;;;;;5072818;28;20398;-40
2022/08/22 12:05:05;;;;;;;2.40;2.20;;;25.90;39.20;;;;;;5072827;28;20387;-43
2022/08/22 12:07:37;;;;;;;2.97;2.30;;;25.90;39.20;;;;;;5072673;28;20893;-41
2022/08/22 12:10:06;;;;;;;2.93;2.40;;;25.90;38.80;;;;;;5072629;28;20908;-40
2022/08/22 12:12:37;;;;;;;3.27;2.63;;;25.90;38.80;;;;;;5072397;28;20555;-43
2022/08/22 12:15:19;;;;;;;3.37;2.27;;;25.90;38.10;;;;;;5072765;28;20762;-41
2022/08/22 12:17:59;;;;;;;4.67;2.80;;;25.80;38.60;;;;;;5072091;28;20875;-41
2022/08/22 12:20:49;;;;;;;2.70;2.37;;;25.80;39.00;;;;;;5072704;28;20482;-41
2022/08/22 12:23:29;;;;;;;4.67;2.70;;;25.80;39.10;;;;;;5072503;28;20395;-43
2022/08/22 12:26:02;;;;;;;3.67;2.67;;;25.80;39.00;;;;;;5072237;28;20979;-41
2022/08/22 12:28:48;;;;;;;2.80;2.50;;;25.80;39.70;;;;;;5072420;28;20451;-41
2022/08/22 12:31:41;;;;;;;3.07;2.30;;;25.80;39.10;;;;;;5072284;28;20379;-41
2022/08/22 12:34:11;;;;;;;3.00;2.00;;;25.90;38.80;;;;;;5071437;28;20932;-42
2022/08/22 12:36:52;;;;;;;4.17;2.30;;;25.80;39.10;;;;;;5071592;28;20480;-43
2022/08/22 12:39:50;;;;;;;3.30;2.37;;;25.90;37.70;;;;;;5072466;28;20403;-43
2022/08/22 12:42:53;;;;;;;3.37;2.30;;;25.90;37.80;;;;;;5050630;28;20415;-44
2022/08/22 12:45:35;;;;;;;2.70;2.40;;;25.90;38.40;;;;;;5072002;28;20405;-43
2022/08/22 12:48:43;;;;;;;6.30;3.03;;;25.90;38.80;;;;;;5072171;28;20418;-46
2022/08/22 12:51:38;;;;;;;3.53;2.50;;;25.90;38.60;;;;;;5057273;28;20447;-44
2022/08/22 12:54:14;;;;;;;3.00;2.50;;;25.90;38.50;;;;;;5071952;28;20383;-43
2022/08/22 12:57:14;;;;;;;3.20;1.90;;;25.90;37.80;;;;;;5071689;28;20470;-44
2022/08/22 12:59:44;;;;;;;4.13;2.40;;;25.90;38.10;;;;;;5072214;28;20395;-44
2022/08/22 13:02:31;;;;;;;4.27;2.50;;;25.90;38.50;;;;;;5071796;28;20944;-43
2022/08/22 13:05:01;;;;;;;2.83;2.50;;;25.90;38.60;;;;;;5072103;28;20509;-45
2022/08/22 13:07:36;;;;;;;3.13;2.67;;;25.90;38.60;;;;;;5071698;28;20387;-43
2022/08/22 13:10:13;;;;;;;2.13;1.90;;;25.90;38.70;;;;;;5071640;28;20445;-44
2022/08/22 13:12:46;;;;;;;4.63;2.80;;;25.80;38.60;;;;;;5072059;28;20402;-45
2022/08/22 13:15:30;;;;;;;3.43;1.90;;;25.90;38.30;;;;;;5071806;28;20387;-43
2022/08/22 13:17:59;;;;;;;5.03;2.33;;;25.80;38.30;;;;;;5071583;28;20773;-44
2022/08/22 13:20:33;;;;;;;5.00;2.30;;;25.70;38.70;;;;;;5071502;28;20952;-45
2022/08/22 13:23:04;;;;;;;4.27;1.87;;;25.70;38.30;;;;;;5071632;28;20429;-42
2022/08/22 13:26:09;;;;;;;2.80;1.60;;;25.70;38.50;;;;;;5071383;28;20419;-45
2022/08/22 13:28:54;;;;;;;2.97;2.17;;;25.70;38.00;;;;;;5071511;28;20442;-44
2022/08/22 13:31:22;;;;;;;3.20;2.10;;;25.60;38.10;;;;;;5071622;28;20438;-45
2022/08/22 13:33:50;;;;;;;2.70;2.20;;;25.50;38.30;;;;;;5070053;28;20409;-44
2022/08/22 13:36:21;;;;;;;2.23;1.90;;;25.50;38.50;;;;;;5071087;28;20419;-44
2022/08/22 13:39:00;;;;;;;3.37;2.30;;;25.50;38.50;;;;;;5071354;28;20456;-44
2022/08/22 13:41:34;;;;;;;2.70;1.90;;;25.50;38.40;;;;;;5071392;28;20399;-44
2022/08/22 13:44:06;;;;;;;3.30;2.50;;;25.50;38.70;;;;;;5071819;28;20483;-44
2022/08/22 13:46:34;;;;;;;3.80;2.33;;;25.40;38.60;;;;;;5074748;28;20422;-44
2022/08/22 13:49:05;;;;;;;2.60;2.20;;;25.40;38.50;;;;;;5075053;28;20450;-44
2022/08/22 13:51:48;;;;;;;3.53;2.60;;;25.40;38.50;;;;;;5073845;28;20442;-44
2022/08/22 13:54:14;;;;;;;3.03;2.67;;;25.40;38.50;;;;;;5075109;28;20387;-44
2022/08/22 13:57:18;;;;;;;3.80;2.60;;;25.40;38.40;;;;;;5074568;28;20449;-45
2022/08/22 13:59:59;;;;;;;4.73;2.13;;;25.40;38.10;;;;;;5075011;28;20214;-45
2022/08/22 14:02:38;;;;;;;2.03;1.50;;;25.40;38.30;;;;;;5074911;28;20395;-45